createdAt,value
2023-04-16T06:50:09.451Z,1.92
2023-04-16T06:52:37.194Z,2.00
2023-04-16T06:55:05.403Z,2.08
2023-04-16T06:57:33.920Z,2.30
2023-04-16T07:00:06.199Z,2.42
2023-04-16T07:02:34.095Z,2.60
2023-04-16T07:19:53.336Z,3.58
2023-04-16T07:22:22.542Z,3.10
2023-04-16T07:25:07.009Z,3.00
2023-04-16T07:27:34.857Z,3.10
2023-04-16T07:30:04.227Z,3.00
2023-04-16T07:32:34.224Z,2.95
2023-04-16T07:35:05.347Z,3.50
2023-04-16T07:49:56.370Z,3.25
2023-04-16T07:52:24.029Z,3.60
2023-04-16T07:54:52.021Z,3.50
2023-04-16T07:57:19.908Z,3.72
2023-04-16T07:59:49.038Z,4.18
2023-04-16T08:02:28.767Z,3.85
2023-04-16T08:04:56.902Z,4.00
2023-04-16T08:07:53.303Z,4.35
2023-04-16T08:10:22.887Z,5.18
2023-04-16T08:12:51.028Z,4.88
2023-04-16T08:15:19.288Z,4.90
2023-04-16T08:17:47.101Z,4.88
2023-04-16T08:20:19.349Z,4.72
2023-04-16T08:22:48.333Z,4.75
2023-04-16T08:25:16.484Z,4.22
2023-04-16T08:27:46.358Z,3.47
2023-04-16T08:30:16.501Z,3.65
2023-04-16T08:32:44.588Z,2.92
2023-04-16T08:35:12.228Z,3.20
2023-04-16T08:37:49.819Z,3.42
2023-04-16T08:40:19.144Z,3.33
2023-04-16T08:42:53.977Z,2.97
2023-04-16T08:45:26.794Z,2.80
2023-04-16T08:48:02.161Z,2.75
2023-04-16T08:50:42.627Z,2.80
2023-04-16T08:53:14.153Z,3.10
2023-04-16T08:55:56.404Z,2.33
2023-04-16T08:58:34.226Z,1.90
2023-04-16T09:01:03.978Z,2.13
2023-04-16T09:03:36.729Z,2.25
2023-04-16T09:06:06.338Z,2.92
2023-04-16T09:11:33.648Z,2.53
2023-04-16T09:14:05.565Z,2.63
2023-04-16T09:16:37.518Z,2.83
2023-04-16T09:19:12.588Z,3.22
2023-04-16T09:22:01.643Z,3.15
2023-04-16T09:24:31.479Z,3.42
2023-04-16T09:27:03.917Z,2.97
2023-04-16T09:29:42.049Z,3.78
2023-04-16T09:33:01.802Z,4.20
2023-04-16T09:36:18.920Z,3.30
2023-04-16T09:42:27.385Z,3.47
2023-04-16T09:49:27.039Z,4.03
2023-04-16T09:52:42.252Z,3.60
2023-04-16T10:11:42.597Z,3.83
2023-04-16T10:14:11.858Z,3.30
2023-04-16T10:26:32.240Z,3.65
2023-04-16T10:34:38.691Z,2.72
2023-04-16T10:46:30.085Z,2.28
2023-04-16T11:25:02.624Z,2.53
2023-04-16T11:28:00.584Z,3.28
2023-04-16T11:32:17.883Z,2.97
2023-04-16T11:35:31.156Z,3.03
2023-04-16T12:07:28.182Z,3.05
2023-04-16T12:10:12.026Z,2.80
2023-04-16T12:12:40.029Z,3.20
2023-04-16T12:15:08.263Z,3.25
2023-04-16T12:17:36.930Z,3.67
2023-04-16T12:20:10.222Z,3.55
2023-04-16T12:22:47.260Z,3.22
2023-04-16T12:25:17.281Z,2.70
2023-04-16T12:27:47.356Z,2.63
2023-04-16T12:30:16.224Z,3.58
2023-04-16T12:32:45.918Z,3.40
2023-04-16T12:35:34.876Z,3.30
2023-04-16T12:40:57.169Z,3.08
2023-04-16T12:43:25.888Z,3.80
2023-04-16T12:45:57.183Z,3.13
2023-04-16T12:48:24.989Z,3.80
2023-04-16T12:50:57.699Z,4.15
2023-04-16T12:53:28.948Z,3.17
2023-04-16T12:55:59.787Z,3.65
2023-04-16T12:58:30.872Z,3.72
2023-04-16T13:01:00.406Z,3.47
2023-04-16T13:03:35.918Z,3.67
2023-04-16T14:35:43.464Z,3.70
2023-04-16T14:42:49.034Z,3.92
2023-04-16T14:46:11.598Z,3.90
2023-04-16T14:53:14.855Z,4.35
2023-04-16T15:02:20.390Z,3.83
2023-04-16T15:09:00.872Z,4.00
2023-04-16T15:12:10.906Z,4.20
2023-04-16T15:15:40.904Z,4.18
2023-04-16T15:18:47.123Z,3.95
2023-04-16T15:22:10.832Z,4.03
2023-04-16T15:25:40.313Z,3.95
2023-04-16T15:28:55.247Z,4.03
2023-04-16T15:32:27.177Z,4.40
2023-04-16T15:35:44.292Z,4.57
2023-04-16T15:39:31.685Z,4.50
2023-04-16T15:42:29.374Z,4.18
2023-04-16T15:45:31.521Z,3.50
2023-04-16T15:49:00.518Z,3.20
2023-04-16T15:52:12.211Z,3.45
2023-04-16T16:05:24.638Z,3.43
2023-04-16T16:08:44.113Z,3.20
2023-04-16T16:12:09.817Z,3.47
2023-04-16T16:15:27.622Z,3.55
2023-04-16T16:22:35.650Z,3.15
2023-04-16T16:31:57.852Z,3.70
2023-04-16T16:34:30.117Z,3.60
2023-04-16T16:38:25.478Z,2.95
2023-04-16T16:41:20.401Z,2.78
2023-04-16T16:44:00.951Z,2.55
2023-04-16T16:57:17.311Z,1.92
2023-04-16T17:02:56.257Z,1.65
2023-04-16T17:08:34.639Z,1.95
2023-04-16T17:12:33.139Z,1.67
2023-04-16T17:15:15.221Z,1.77
2023-04-16T17:18:13.043Z,1.95
2023-04-16T17:21:10.116Z,2.30
2023-04-16T17:24:25.673Z,1.90
2023-04-16T17:27:11.785Z,1.77
2023-04-16T17:29:41.997Z,2.25
2023-04-16T17:32:16.003Z,1.90
2023-04-16T17:34:46.316Z,2.08
2023-04-16T17:37:17.885Z,1.50
2023-04-16T17:40:16.331Z,2.10
2023-04-16T17:43:00.584Z,1.85
2023-04-16T17:45:45.258Z,2.05
2023-04-16T17:48:36.932Z,1.85
2023-04-16T17:55:08.436Z,1.63
2023-04-16T17:57:47.502Z,1.48
2023-04-16T18:00:26.016Z,1.50
2023-04-16T18:02:57.341Z,2.05
2023-04-16T18:05:25.912Z,1.60
2023-04-16T18:07:56.046Z,1.33
2023-04-16T18:10:24.282Z,1.70
2023-04-16T18:12:51.954Z,1.75
2023-04-16T18:15:19.754Z,1.75
2023-04-16T18:17:47.641Z,2.00
2023-04-16T18:20:19.372Z,2.03
2023-04-16T18:22:46.918Z,1.90
2023-04-16T18:25:16.075Z,1.77
2023-04-16T18:27:45.002Z,1.70
2023-04-16T18:33:03.644Z,2.30
2023-04-16T18:35:33.641Z,2.10
2023-04-16T18:38:01.347Z,2.05
2023-04-16T18:40:29.485Z,2.08
2023-04-16T18:42:58.134Z,2.08
2023-04-16T18:45:30.783Z,2.38
2023-04-16T18:47:59.064Z,2.22
2023-04-16T18:50:27.025Z,2.53
2023-04-16T18:52:55.042Z,2.65
2023-04-16T19:30:40.781Z,2.75
2023-04-16T19:33:08.911Z,2.30
2023-04-16T19:35:36.994Z,2.63
2023-04-16T19:38:05.168Z,2.83
2023-04-16T19:40:35.351Z,2.97
2023-04-16T19:43:03.920Z,2.58
2023-04-16T19:45:32.159Z,2.88
2023-04-16T19:48:00.421Z,2.60
2023-04-16T19:50:28.640Z,2.65
2023-04-16T19:52:56.360Z,3.00
2023-04-16T19:55:24.492Z,2.67
2023-04-16T19:57:52.486Z,2.67
2023-04-16T20:00:30.792Z,2.58
2023-04-16T20:02:59.774Z,2.65
2023-04-16T20:05:28.391Z,2.72
2023-04-16T20:07:58.224Z,2.67
2023-04-16T20:10:28.758Z,2.67
2023-04-16T20:12:59.498Z,3.20
2023-04-16T20:15:33.145Z,3.50
2023-04-16T20:18:02.285Z,3.20
2023-04-16T20:20:30.674Z,3.25
2023-04-16T20:23:03.662Z,3.38
2023-04-16T20:25:37.917Z,4.60
2023-04-16T20:28:09.025Z,4.28
2023-04-16T20:30:40.313Z,3.70
2023-04-16T20:33:10.661Z,3.28
2023-04-16T20:35:38.984Z,2.95
2023-04-16T20:38:09.787Z,3.40
2023-04-16T20:41:11.432Z,2.58
2023-04-16T20:43:42.417Z,3.22
2023-04-16T20:46:19.738Z,3.38
2023-04-16T20:48:52.015Z,3.30
2023-04-16T20:51:35.820Z,3.38
2023-04-16T20:54:10.257Z,3.17
2023-04-16T20:56:38.080Z,2.90
2023-04-16T20:59:07.559Z,3.35
2023-04-16T21:03:02.183Z,3.45
2023-04-16T21:05:50.201Z,3.38
2023-04-16T21:08:28.403Z,3.60
2023-04-16T21:11:03.036Z,3.42
2023-04-16T21:14:10.015Z,3.10
2023-04-16T21:19:32.596Z,3.95
2023-04-16T21:22:02.885Z,4.15
2023-04-16T21:24:36.969Z,3.28
2023-04-16T21:27:07.561Z,3.35
2023-04-16T21:29:39.133Z,3.33
2023-04-16T21:32:06.872Z,3.65
2023-04-16T21:34:34.459Z,3.38
2023-04-16T21:37:05.038Z,3.47
2023-04-16T21:39:32.819Z,3.38
2023-04-16T21:42:03.121Z,3.45
2023-04-16T21:44:31.190Z,3.53
2023-04-16T21:47:02.729Z,3.38
2023-04-16T21:49:33.603Z,3.13
2023-04-16T21:52:05.147Z,3.72
2023-04-16T21:54:34.152Z,3.20
2023-04-16T21:57:02.805Z,3.60
2023-04-16T21:59:31.570Z,3.95
2023-04-16T22:02:08.175Z,3.83
2023-04-16T22:07:10.482Z,3.65
2023-04-16T22:09:40.982Z,3.60
2023-04-16T22:12:14.713Z,3.25
2023-04-16T22:14:52.176Z,3.42
2023-04-16T22:17:30.794Z,3.70
2023-04-16T22:20:00.689Z,3.08
2023-04-16T22:22:29.062Z,3.53
2023-04-16T22:25:16.103Z,3.22
2023-04-16T22:27:43.993Z,3.40
2023-04-16T22:30:12.074Z,2.90
2023-04-16T22:32:39.994Z,2.80
2023-04-16T22:35:08.220Z,3.05
2023-04-16T22:37:38.264Z,2.88
2023-04-16T22:40:11.019Z,2.55
2023-04-16T22:42:38.757Z,3.10
2023-04-16T22:45:07.494Z,2.33
2023-04-16T22:47:35.065Z,2.05
2023-04-16T22:50:09.419Z,2.90
2023-04-16T22:52:37.467Z,2.28
2023-04-16T22:55:09.126Z,2.00
2023-04-16T22:57:36.895Z,2.15
2023-04-16T23:00:07.905Z,2.28
2023-04-16T23:02:36.031Z,2.10
2023-04-16T23:05:05.001Z,1.95
2023-04-16T23:07:32.924Z,1.55
2023-04-16T23:10:01.769Z,2.08
2023-04-16T23:12:29.539Z,2.15
2023-04-16T23:15:03.676Z,1.95
2023-04-16T23:17:31.338Z,2.65
2023-04-16T23:19:58.988Z,2.00
